sensor_id;sensor_type;location;lat;lon;timestamp;temperature;humidity
33382;DHT22;21342;48.786;9.166;2022-10-19T00:00:47;15.40;99.90
33382;DHT22;21342;48.786;9.166;2022-10-19T00:03:14;15.30;99.90
33382;DHT22;21342;48.786;9.166;2022-10-19T00:05:42;15.50;99.90
33382;DHT22;21342;48.786;9.166;2022-10-19T00:08:09;15.40;99.90
33382;DHT22;21342;48.786;9.166;2022-10-19T00:10:40;15.30;99.90
33382;DHT22;21342;48.786;9.166;2022-10-19T00:13:08;15.40;99.90
33382;DHT22;21342;48.786;9.166;2022-10-19T00:15:38;15.40;99.90
33382;DHT22;21342;48.786;9.166;2022-10-19T00:18:05;15.40;99.90
33382;DHT22;21342;48.786;9.166;2022-10-19T00:20:33;15.40;99.90
33382;DHT22;21342;48.786;9.166;2022-10-19T00:23:00;15.30;99.90
33382;DHT22;21342;48.786;9.166;2022-10-19T00:25:27;15.30;99.90
33382;DHT22;21342;48.786;9.166;2022-10-19T00:27:54;15.30;99.90
33382;DHT22;21342;48.786;9.166;2022-10-19T00:30:23;15.30;99.90
33382;DHT22;21342;48.786;9.166;2022-10-19T00:32:50;15.30;99.90
33382;DHT22;21342;48.786;9.166;2022-10-19T00:35:17;15.30;99.90
33382;DHT22;21342;48.786;9.166;2022-10-19T00:37:44;15.10;99.90
33382;DHT22;21342;48.786;9.166;2022-10-19T00:40:11;15.10;99.90
33382;DHT22;21342;48.786;9.166;2022-10-19T00:42:38;15.00;99.90
33382;DHT22;21342;48.786;9.166;2022-10-19T00:45:12;15.10;99.90
33382;DHT22;21342;48.786;9.166;2022-10-19T00:47:41;15.10;99.90
33382;DHT22;21342;48.786;9.166;2022-10-19T00:50:10;15.20;99.90
33382;DHT22;21342;48.786;9.166;2022-10-19T00:52:42;15.10;99.90
33382;DHT22;21342;48.786;9.166;2022-10-19T00:55:10;15.10;99.90
33382;DHT22;21342;48.786;9.166;2022-10-19T00:57:38;15.30;99.90
33382;DHT22;21342;48.786;9.166;2022-10-19T01:00:07;15.50;99.90
33382;DHT22;21342;48.786;9.166;2022-10-19T01:02:35;15.40;99.90
33382;DHT22;21342;48.786;9.166;2022-10-19T01:05:05;15.50;99.90
33382;DHT22;21342;48.786;9.166;2022-10-19T01:07:33;15.50;99.90
33382;DHT22;21342;48.786;9.166;2022-10-19T01:10:01;15.50;99.90
33382;DHT22;21342;48.786;9.166;2022-10-19T01:15:26;15.40;99.90
33382;DHT22;21342;48.786;9.166;2022-10-19T01:18:02;15.30;99.90
33382;DHT22;21342;48.786;9.166;2022-10-19T01:20:54;15.30;99.90
33382;DHT22;21342;48.786;9.166;2022-10-19T01:23:40;15.40;99.90
33382;DHT22;21342;48.786;9.166;2022-10-19T01:26:18;15.40;99.90
33382;DHT22;21342;48.786;9.166;2022-10-19T01:28:56;15.50;99.90
33382;DHT22;21342;48.786;9.166;2022-10-19T01:31:35;15.50;99.90
33382;DHT22;21342;48.786;9.166;2022-10-19T01:34:08;15.50;99.90
33382;DHT22;21342;48.786;9.166;2022-10-19T01:36:40;15.60;99.90
33382;DHT22;21342;48.786;9.166;2022-10-19T01:39:14;15.60;99.90
33382;DHT22;21342;48.786;9.166;2022-10-19T01:41:49;15.80;99.90
33382;DHT22;21342;48.786;9.166;2022-10-19T01:44:24;15.90;99.90
33382;DHT22;21342;48.786;9.166;2022-10-19T01:46:57;15.90;99.90
33382;DHT22;21342;48.786;9.166;2022-10-19T01:49:31;16.00;99.90
33382;DHT22;21342;48.786;9.166;2022-10-19T01:52:00;15.90;99.90
33382;DHT22;21342;48.786;9.166;2022-10-19T01:54:33;16.00;99.90
33382;DHT22;21342;48.786;9.166;2022-10-19T01:57:05;15.90;99.90
33382;DHT22;21342;48.786;9.166;2022-10-19T01:59:33;15.80;99.90
33382;DHT22;21342;48.786;9.166;2022-10-19T02:02:05;15.80;99.90
33382;DHT22;21342;48.786;9.166;2022-10-19T02:04:33;15.80;99.90
33382;DHT22;21342;48.786;9.166;2022-10-19T02:07:02;15.60;99.90
33382;DHT22;21342;48.786;9.166;2022-10-19T02:09:30;15.70;99.90
33382;DHT22;21342;48.786;9.166;2022-10-19T02:12:01;15.70;99.90
33382;DHT22;21342;48.786;9.166;2022-10-19T02:14:31;15.80;99.90
33382;DHT22;21342;48.786;9.166;2022-10-19T02:17:05;15.70;99.90
33382;DHT22;21342;48.786;9.166;2022-10-19T02:19:33;15.70;99.90
33382;DHT22;21342;48.786;9.166;2022-10-19T02:22:00;15.50;99.90
33382;DHT22;21342;48.786;9.166;2022-10-19T02:24:27;15.40;99.90
33382;DHT22;21342;48.786;9.166;2022-10-19T02:26:55;15.40;99.90
33382;DHT22;21342;48.786;9.166;2022-10-19T02:29:22;15.50;99.90
33382;DHT22;21342;48.786;9.166;2022-10-19T02:31:49;15.70;99.90
33382;DHT22;21342;48.786;9.166;2022-10-19T02:34:18;15.80;99.90
33382;DHT22;21342;48.786;9.166;2022-10-19T02:36:45;15.80;99.90
33382;DHT22;21342;48.786;9.166;2022-10-19T02:39:12;15.80;99.90
33382;DHT22;21342;48.786;9.166;2022-10-19T02:41:43;15.80;99.90
33382;DHT22;21342;48.786;9.166;2022-10-19T02:44:15;15.80;99.90
33382;DHT22;21342;48.786;9.166;2022-10-19T02:46:45;15.70;99.90
33382;DHT22;21342;48.786;9.166;2022-10-19T02:49:14;15.70;99.90
33382;DHT22;21342;48.786;9.166;2022-10-19T02:51:56;15.70;99.90
33382;DHT22;21342;48.786;9.166;2022-10-19T02:54:24;15.60;99.90
33382;DHT22;21342;48.786;9.166;2022-10-19T02:56:51;15.60;99.90
33382;DHT22;21342;48.786;9.166;2022-10-19T02:59:18;15.60;99.90
33382;DHT22;21342;48.786;9.166;2022-10-19T03:01:45;15.70;99.90
33382;DHT22;21342;48.786;9.166;2022-10-19T03:04:12;15.60;99.90
33382;DHT22;21342;48.786;9.166;2022-10-19T03:06:39;15.80;99.90
33382;DHT22;21342;48.786;9.166;2022-10-19T03:09:08;15.80;99.90
33382;DHT22;21342;48.786;9.166;2022-10-19T03:11:35;15.90;99.90
33382;DHT22;21342;48.786;9.166;2022-10-19T03:14:02;15.90;99.90
33382;DHT22;21342;48.786;9.166;2022-10-19T03:16:29;15.80;99.90
33382;DHT22;21342;48.786;9.166;2022-10-19T03:18:56;15.80;99.90
33382;DHT22;21342;48.786;9.166;2022-10-19T03:21:23;15.80;99.90
33382;DHT22;21342;48.786;9.166;2022-10-19T03:23:50;15.80;99.90
33382;DHT22;21342;48.786;9.166;2022-10-19T03:26:19;15.80;99.90
33382;DHT22;21342;48.786;9.166;2022-10-19T03:28:46;15.70;99.90
33382;DHT22;21342;48.786;9.166;2022-10-19T03:31:13;15.70;99.90
33382;DHT22;21342;48.786;9.166;2022-10-19T03:33:40;15.60;99.90
33382;DHT22;21342;48.786;9.166;2022-10-19T03:36:19;15.60;99.90
33382;DHT22;21342;48.786;9.166;2022-10-19T03:38:49;15.70;99.90
33382;DHT22;21342;48.786;9.166;2022-10-19T03:41:18;15.70;99.90
33382;DHT22;21342;48.786;9.166;2022-10-19T03:43:46;15.70;99.90
33382;DHT22;21342;48.786;9.166;2022-10-19T03:46:13;15.70;99.90
33382;DHT22;21342;48.786;9.166;2022-10-19T03:48:41;15.70;99.90
33382;DHT22;21342;48.786;9.166;2022-10-19T03:51:10;15.60;99.90
33382;DHT22;21342;48.786;9.166;2022-10-19T03:53:38;15.60;99.90
33382;DHT22;21342;48.786;9.166;2022-10-19T03:56:09;15.70;99.90
33382;DHT22;21342;48.786;9.166;2022-10-19T03:58:39;15.70;99.90
33382;DHT22;21342;48.786;9.166;2022-10-19T04:01:08;15.70;99.90
33382;DHT22;21342;48.786;9.166;2022-10-19T04:03:36;15.70;99.90
33382;DHT22;21342;48.786;9.166;2022-10-19T04:06:04;15.70;99.90
33382;DHT22;21342;48.786;9.166;2022-10-19T04:08:31;15.80;99.90
33382;DHT22;21342;48.786;9.166;2022-10-19T04:11:00;15.70;99.90
33382;DHT22;21342;48.786;9.166;2022-10-19T04:13:27;15.80;99.90
33382;DHT22;21342;48.786;9.166;2022-10-19T04:15:56;15.80;99.90
33382;DHT22;21342;48.786;9.166;2022-10-19T04:18:24;15.90;99.90
33382;DHT22;21342;48.786;9.166;2022-10-19T04:20:55;15.80;99.90
33382;DHT22;21342;48.786;9.166;2022-10-19T04:23:22;15.80;99.90
33382;DHT22;21342;48.786;9.166;2022-10-19T04:25:50;15.80;99.90
33382;DHT22;21342;48.786;9.166;2022-10-19T04:28:17;15.90;99.90
33382;DHT22;21342;48.786;9.166;2022-10-19T04:30:44;16.10;99.90
33382;DHT22;21342;48.786;9.166;2022-10-19T04:33:13;16.10;99.90
33382;DHT22;21342;48.786;9.166;2022-10-19T04:35:40;16.20;99.90
33382;DHT22;21342;48.786;9.166;2022-10-19T04:38:07;16.10;99.90
33382;DHT22;21342;48.786;9.166;2022-10-19T04:40:35;16.00;99.90
33382;DHT22;21342;48.786;9.166;2022-10-19T04:43:02;15.90;99.90
33382;DHT22;21342;48.786;9.166;2022-10-19T04:45:30;15.80;99.90
33382;DHT22;21342;48.786;9.166;2022-10-19T04:47:57;15.90;99.90
33382;DHT22;21342;48.786;9.166;2022-10-19T04:50:26;16.00;99.90
33382;DHT22;21342;48.786;9.166;2022-10-19T04:52:53;16.00;99.90
33382;DHT22;21342;48.786;9.166;2022-10-19T04:55:20;16.00;99.90
33382;DHT22;21342;48.786;9.166;2022-10-19T04:57:47;16.10;99.90
33382;DHT22;21342;48.786;9.166;2022-10-19T05:00:15;16.10;99.90
33382;DHT22;21342;48.786;9.166;2022-10-19T05:02:47;16.10;99.90
33382;DHT22;21342;48.786;9.166;2022-10-19T05:05:14;16.10;99.90
33382;DHT22;21342;48.786;9.166;2022-10-19T05:07:42;16.20;99.90
33382;DHT22;21342;48.786;9.166;2022-10-19T05:10:12;16.40;99.90
33382;DHT22;21342;48.786;9.166;2022-10-19T05:12:39;16.40;99.90
33382;DHT22;21342;48.786;9.166;2022-10-19T05:15:08;16.50;99.90
33382;DHT22;21342;48.786;9.166;2022-10-19T05:17:35;16.50;99.90
33382;DHT22;21342;48.786;9.166;2022-10-19T05:20:02;16.50;99.90
33382;DHT22;21342;48.786;9.166;2022-10-19T05:22:29;16.60;99.90
33382;DHT22;21342;48.786;9.166;2022-10-19T05:24:58;16.60;99.90
33382;DHT22;21342;48.786;9.166;2022-10-19T05:27:25;16.70;99.90
33382;DHT22;21342;48.786;9.166;2022-10-19T05:29:53;16.70;99.90
33382;DHT22;21342;48.786;9.166;2022-10-19T05:32:20;16.80;99.90
33382;DHT22;21342;48.786;9.166;2022-10-19T05:34:47;16.80;99.90
33382;DHT22;21342;48.786;9.166;2022-10-19T05:37:15;16.70;99.90
33382;DHT22;21342;48.786;9.166;2022-10-19T05:39:42;16.70;99.90
33382;DHT22;21342;48.786;9.166;2022-10-19T05:42:10;16.60;99.90
33382;DHT22;21342;48.786;9.166;2022-10-19T05:44:38;16.40;99.90
33382;DHT22;21342;48.786;9.166;2022-10-19T05:47:05;16.30;99.90
33382;DHT22;21342;48.786;9.166;2022-10-19T05:49:32;16.30;99.90
33382;DHT22;21342;48.786;9.166;2022-10-19T05:51:59;16.40;99.90
33382;DHT22;21342;48.786;9.166;2022-10-19T05:54:26;16.40;99.90
33382;DHT22;21342;48.786;9.166;2022-10-19T05:56:53;16.40;99.90
33382;DHT22;21342;48.786;9.166;2022-10-19T05:59:22;16.40;99.90
33382;DHT22;21342;48.786;9.166;2022-10-19T06:01:49;16.30;99.90
33382;DHT22;21342;48.786;9.166;2022-10-19T06:04:16;16.20;99.90
33382;DHT22;21342;48.786;9.166;2022-10-19T06:06:44;16.00;99.90
33382;DHT22;21342;48.786;9.166;2022-10-19T06:09:11;16.00;99.90
33382;DHT22;21342;48.786;9.166;2022-10-19T06:11:40;16.00;99.90
33382;DHT22;21342;48.786;9.166;2022-10-19T06:14:10;16.10;99.90
33382;DHT22;21342;48.786;9.166;2022-10-19T06:16:39;16.20;99.90
33382;DHT22;21342;48.786;9.166;2022-10-19T06:19:07;16.30;99.90
33382;DHT22;21342;48.786;9.166;2022-10-19T06:21:34;16.40;99.90
33382;DHT22;21342;48.786;9.166;2022-10-19T06:24:03;16.30;99.90
33382;DHT22;21342;48.786;9.166;2022-10-19T06:26:32;16.20;99.90
33382;DHT22;21342;48.786;9.166;2022-10-19T06:29:00;16.10;99.90
33382;DHT22;21342;48.786;9.166;2022-10-19T06:31:27;16.10;99.90
33382;DHT22;21342;48.786;9.166;2022-10-19T06:33:56;16.20;99.90
33382;DHT22;21342;48.786;9.166;2022-10-19T06:36:25;16.20;99.90
33382;DHT22;21342;48.786;9.166;2022-10-19T06:38:54;16.30;99.90
33382;DHT22;21342;48.786;9.166;2022-10-19T06:41:21;16.40;99.90
33382;DHT22;21342;48.786;9.166;2022-10-19T06:43:49;16.40;99.90
33382;DHT22;21342;48.786;9.166;2022-10-19T06:46:17;16.40;99.90
33382;DHT22;21342;48.786;9.166;2022-10-19T06:48:51;16.30;99.90
33382;DHT22;21342;48.786;9.166;2022-10-19T06:51:20;16.50;99.90
33382;DHT22;21342;48.786;9.166;2022-10-19T06:53:48;16.40;99.90
33382;DHT22;21342;48.786;9.166;2022-10-19T06:56:15;16.60;99.90
33382;DHT22;21342;48.786;9.166;2022-10-19T06:58:42;16.60;99.90
33382;DHT22;21342;48.786;9.166;2022-10-19T07:01:10;16.40;99.90
33382;DHT22;21342;48.786;9.166;2022-10-19T07:03:39;16.50;99.90
33382;DHT22;21342;48.786;9.166;2022-10-19T07:06:09;16.40;99.90
33382;DHT22;21342;48.786;9.166;2022-10-19T07:08:39;16.40;99.90
33382;DHT22;21342;48.786;9.166;2022-10-19T07:11:08;16.50;99.90
33382;DHT22;21342;48.786;9.166;2022-10-19T07:13:35;16.40;99.90
33382;DHT22;21342;48.786;9.166;2022-10-19T07:16:05;16.40;99.90
33382;DHT22;21342;48.786;9.166;2022-10-19T07:18:34;16.10;99.90
33382;DHT22;21342;48.786;9.166;2022-10-19T07:21:03;16.20;99.90
33382;DHT22;21342;48.786;9.166;2022-10-19T07:23:31;16.30;99.90
33382;DHT22;21342;48.786;9.166;2022-10-19T07:26:03;16.30;99.90
33382;DHT22;21342;48.786;9.166;2022-10-19T07:28:31;16.30;99.90
33382;DHT22;21342;48.786;9.166;2022-10-19T07:30:59;16.20;99.90
33382;DHT22;21342;48.786;9.166;2022-10-19T07:33:29;16.30;99.90
33382;DHT22;21342;48.786;9.166;2022-10-19T07:35:58;16.50;99.90
33382;DHT22;21342;48.786;9.166;2022-10-19T07:38:26;16.50;99.90
33382;DHT22;21342;48.786;9.166;2022-10-19T07:41:06;16.40;99.90
33382;DHT22;21342;48.786;9.166;2022-10-19T07:43:34;16.70;99.90
33382;DHT22;21342;48.786;9.166;2022-10-19T07:46:02;16.80;99.90
33382;DHT22;21342;48.786;9.166;2022-10-19T07:48:30;17.00;99.90
33382;DHT22;21342;48.786;9.166;2022-10-19T07:50:59;17.00;99.90
33382;DHT22;21342;48.786;9.166;2022-10-19T07:53:27;17.10;99.90
33382;DHT22;21342;48.786;9.166;2022-10-19T07:55:54;17.10;99.90
33382;DHT22;21342;48.786;9.166;2022-10-19T07:58:22;17.20;99.90
33382;DHT22;21342;48.786;9.166;2022-10-19T08:00:50;17.40;99.90
33382;DHT22;21342;48.786;9.166;2022-10-19T08:03:17;17.50;99.90
33382;DHT22;21342;48.786;9.166;2022-10-19T08:05:44;17.40;99.90
33382;DHT22;21342;48.786;9.166;2022-10-19T08:08:11;17.40;99.90
33382;DHT22;21342;48.786;9.166;2022-10-19T08:10:38;17.50;99.90
33382;DHT22;21342;48.786;9.166;2022-10-19T08:13:05;17.60;99.90
33382;DHT22;21342;48.786;9.166;2022-10-19T08:15:34;17.50;99.90
33382;DHT22;21342;48.786;9.166;2022-10-19T08:18:01;17.60;99.90
33382;DHT22;21342;48.786;9.166;2022-10-19T08:20:28;17.80;99.90
33382;DHT22;21342;48.786;9.166;2022-10-19T08:22:55;17.90;99.90
33382;DHT22;21342;48.786;9.166;2022-10-19T08:25:22;17.90;99.90
33382;DHT22;21342;48.786;9.166;2022-10-19T08:27:49;17.80;99.90
33382;DHT22;21342;48.786;9.166;2022-10-19T08:30:17;17.80;99.90
33382;DHT22;21342;48.786;9.166;2022-10-19T08:32:45;17.70;99.90
33382;DHT22;21342;48.786;9.166;2022-10-19T08:35:13;17.60;99.90
33382;DHT22;21342;48.786;9.166;2022-10-19T08:37:40;17.80;99.90
33382;DHT22;21342;48.786;9.166;2022-10-19T08:40:15;17.70;99.90
33382;DHT22;21342;48.786;9.166;2022-10-19T08:42:51;17.70;99.90
33382;DHT22;21342;48.786;9.166;2022-10-19T08:45:40;17.60;99.90
33382;DHT22;21342;48.786;9.166;2022-10-19T08:48:23;17.70;99.90
33382;DHT22;21342;48.786;9.166;2022-10-19T08:50:52;18.00;99.90
33382;DHT22;21342;48.786;9.166;2022-10-19T08:53:26;18.10;99.90
33382;DHT22;21342;48.786;9.166;2022-10-19T08:56:04;18.00;99.90
33382;DHT22;21342;48.786;9.166;2022-10-19T08:58:50;17.90;99.90
33382;DHT22;21342;48.786;9.166;2022-10-19T09:01:31;17.80;99.90
33382;DHT22;21342;48.786;9.166;2022-10-19T09:04:03;18.00;99.90
33382;DHT22;21342;48.786;9.166;2022-10-19T09:06:39;17.80;99.90
33382;DHT22;21342;48.786;9.166;2022-10-19T09:09:10;17.80;99.90
33382;DHT22;21342;48.786;9.166;2022-10-19T09:11:43;17.90;99.90
33382;DHT22;21342;48.786;9.166;2022-10-19T09:14:15;17.70;99.90
33382;DHT22;21342;48.786;9.166;2022-10-19T09:16:44;18.00;99.90
33382;DHT22;21342;48.786;9.166;2022-10-19T09:19:20;17.80;99.90
33382;DHT22;21342;48.786;9.166;2022-10-19T09:21:53;17.90;99.90
33382;DHT22;21342;48.786;9.166;2022-10-19T09:24:31;18.10;99.90
33382;DHT22;21342;48.786;9.166;2022-10-19T09:27:06;17.90;99.90
33382;DHT22;21342;48.786;9.166;2022-10-19T09:29:42;18.20;99.90
33382;DHT22;21342;48.786;9.166;2022-10-19T09:32:16;18.00;99.90
33382;DHT22;21342;48.786;9.166;2022-10-19T09:34:50;18.20;99.90
33382;DHT22;21342;48.786;9.166;2022-10-19T09:37:18;18.10;99.90
33382;DHT22;21342;48.786;9.166;2022-10-19T09:39:45;18.00;99.90
33382;DHT22;21342;48.786;9.166;2022-10-19T09:42:19;18.10;99.90
33382;DHT22;21342;48.786;9.166;2022-10-19T09:44:47;18.00;99.90
33382;DHT22;21342;48.786;9.166;2022-10-19T09:47:33;18.20;99.90
33382;DHT22;21342;48.786;9.166;2022-10-19T09:50:14;17.90;99.90
33382;DHT22;21342;48.786;9.166;2022-10-19T09:52:43;18.00;99.90
33382;DHT22;21342;48.786;9.166;2022-10-19T09:55:21;18.10;99.90
33382;DHT22;21342;48.786;9.166;2022-10-19T09:57:58;17.80;99.90
33382;DHT22;21342;48.786;9.166;2022-10-19T10:00:33;17.90;99.90
33382;DHT22;21342;48.786;9.166;2022-10-19T10:03:01;17.80;99.90
33382;DHT22;21342;48.786;9.166;2022-10-19T10:05:32;17.80;99.90
33382;DHT22;21342;48.786;9.166;2022-10-19T10:08:00;18.30;99.90
33382;DHT22;21342;48.786;9.166;2022-10-19T10:10:29;17.90;99.90
33382;DHT22;21342;48.786;9.166;2022-10-19T10:12:59;17.80;99.90
33382;DHT22;21342;48.786;9.166;2022-10-19T10:15:29;17.50;99.90
33382;DHT22;21342;48.786;9.166;2022-10-19T10:18:02;17.50;99.90
33382;DHT22;21342;48.786;9.166;2022-10-19T10:20:31;17.60;99.90
33382;DHT22;21342;48.786;9.166;2022-10-19T10:23:00;17.60;99.90
33382;DHT22;21342;48.786;9.166;2022-10-19T10:25:29;17.30;99.90
33382;DHT22;21342;48.786;9.166;2022-10-19T10:27:59;17.20;99.90
33382;DHT22;21342;48.786;9.166;2022-10-19T10:30:31;17.10;99.90
33382;DHT22;21342;48.786;9.166;2022-10-19T10:33:00;17.10;99.90
33382;DHT22;21342;48.786;9.166;2022-10-19T10:35:32;17.10;99.90
33382;DHT22;21342;48.786;9.166;2022-10-19T10:38:07;17.00;99.90
33382;DHT22;21342;48.786;9.166;2022-10-19T10:40:35;17.10;99.90
33382;DHT22;21342;48.786;9.166;2022-10-19T10:43:06;17.20;99.90
33382;DHT22;21342;48.786;9.166;2022-10-19T10:45:37;17.10;99.90
33382;DHT22;21342;48.786;9.166;2022-10-19T10:48:19;17.00;99.90
33382;DHT22;21342;48.786;9.166;2022-10-19T10:50:50;16.90;99.90
33382;DHT22;21342;48.786;9.166;2022-10-19T10:53:32;17.00;99.90
33382;DHT22;21342;48.786;9.166;2022-10-19T10:55:59;17.10;99.90
33382;DHT22;21342;48.786;9.166;2022-10-19T10:58:36;17.30;99.90
33382;DHT22;21342;48.786;9.166;2022-10-19T11:01:14;17.30;99.90
33382;DHT22;21342;48.786;9.166;2022-10-19T11:03:51;17.30;99.90
33382;DHT22;21342;48.786;9.166;2022-10-19T11:06:22;17.40;99.90
33382;DHT22;21342;48.786;9.166;2022-10-19T11:08:56;17.40;99.90
33382;DHT22;21342;48.786;9.166;2022-10-19T11:11:29;17.50;99.90
33382;DHT22;21342;48.786;9.166;2022-10-19T11:14:00;17.40;99.90
33382;DHT22;21342;48.786;9.166;2022-10-19T11:16:34;17.40;99.90
33382;DHT22;21342;48.786;9.166;2022-10-19T11:19:09;17.50;99.90
33382;DHT22;21342;48.786;9.166;2022-10-19T11:21:43;17.40;99.90
33382;DHT22;21342;48.786;9.166;2022-10-19T11:24:16;17.40;99.90
33382;DHT22;21342;48.786;9.166;2022-10-19T11:27:02;17.50;99.90
33382;DHT22;21342;48.786;9.166;2022-10-19T11:29:49;17.60;99.90
33382;DHT22;21342;48.786;9.166;2022-10-19T11:32:24;17.70;99.90
33382;DHT22;21342;48.786;9.166;2022-10-19T11:35:04;17.50;99.90
33382;DHT22;21342;48.786;9.166;2022-10-19T11:37:41;17.50;99.90
33382;DHT22;21342;48.786;9.166;2022-10-19T11:40:16;17.50;99.90
33382;DHT22;21342;48.786;9.166;2022-10-19T11:42:54;17.60;99.90
33382;DHT22;21342;48.786;9.166;2022-10-19T11:45:30;17.70;99.90
33382;DHT22;21342;48.786;9.166;2022-10-19T11:51:02;17.90;99.90
33382;DHT22;21342;48.786;9.166;2022-10-19T11:53:42;17.90;99.90
33382;DHT22;21342;48.786;9.166;2022-10-19T11:56:16;17.90;99.90
33382;DHT22;21342;48.786;9.166;2022-10-19T11:58:51;17.90;99.90
33382;DHT22;21342;48.786;9.166;2022-10-19T12:01:29;17.80;99.90
33382;DHT22;21342;48.786;9.166;2022-10-19T12:06:52;18.00;99.90
33382;DHT22;21342;48.786;9.166;2022-10-19T12:09:32;18.00;99.90
33382;DHT22;21342;48.786;9.166;2022-10-19T12:12:14;18.00;99.90
33382;DHT22;21342;48.786;9.166;2022-10-19T12:14:49;18.20;99.90
33382;DHT22;21342;48.786;9.166;2022-10-19T12:17:22;18.40;99.90
33382;DHT22;21342;48.786;9.166;2022-10-19T12:19:52;18.40;99.90
33382;DHT22;21342;48.786;9.166;2022-10-19T12:22:24;18.40;99.90
33382;DHT22;21342;48.786;9.166;2022-10-19T12:24:54;18.20;99.90
33382;DHT22;21342;48.786;9.166;2022-10-19T12:27:29;18.10;99.90
33382;DHT22;21342;48.786;9.166;2022-10-19T12:30:02;18.00;99.90
33382;DHT22;21342;48.786;9.166;2022-10-19T12:32:36;18.10;99.90
33382;DHT22;21342;48.786;9.166;2022-10-19T12:35:14;18.10;99.90
33382;DHT22;21342;48.786;9.166;2022-10-19T12:37:46;18.10;99.90
33382;DHT22;21342;48.786;9.166;2022-10-19T12:40:22;18.10;99.90
33382;DHT22;21342;48.786;9.166;2022-10-19T12:42:57;18.10;99.90
33382;DHT22;21342;48.786;9.166;2022-10-19T12:45:28;18.30;99.90
33382;DHT22;21342;48.786;9.166;2022-10-19T12:48:24;18.50;99.90
33382;DHT22;21342;48.786;9.166;2022-10-19T12:51:02;18.70;99.90
33382;DHT22;21342;48.786;9.166;2022-10-19T12:53:31;18.80;99.90
33382;DHT22;21342;48.786;9.166;2022-10-19T12:56:04;19.00;99.90
33382;DHT22;21342;48.786;9.166;2022-10-19T12:58:35;19.80;99.90
33382;DHT22;21342;48.786;9.166;2022-10-19T13:01:05;20.40;99.90
33382;DHT22;21342;48.786;9.166;2022-10-19T13:03:34;20.20;99.90
33382;DHT22;21342;48.786;9.166;2022-10-19T13:06:08;20.00;99.90
33382;DHT22;21342;48.786;9.166;2022-10-19T13:08:41;20.10;99.90
33382;DHT22;21342;48.786;9.166;2022-10-19T13:11:11;20.10;99.90
33382;DHT22;21342;48.786;9.166;2022-10-19T13:14:00;19.90;99.90
33382;DHT22;21342;48.786;9.166;2022-10-19T13:19:28;19.70;99.90
33382;DHT22;21342;48.786;9.166;2022-10-19T13:22:23;19.80;99.90
33382;DHT22;21342;48.786;9.166;2022-10-19T13:25:20;20.10;99.90
33382;DHT22;21342;48.786;9.166;2022-10-19T13:27:54;20.70;99.90
33382;DHT22;21342;48.786;9.166;2022-10-19T13:30:56;20.20;99.90
33382;DHT22;21342;48.786;9.166;2022-10-19T13:33:43;20.20;99.90
33382;DHT22;21342;48.786;9.166;2022-10-19T13:36:12;20.20;99.90
33382;DHT22;21342;48.786;9.166;2022-10-19T13:38:41;20.00;99.90
33382;DHT22;21342;48.786;9.166;2022-10-19T13:41:12;20.20;99.90
33382;DHT22;21342;48.786;9.166;2022-10-19T13:43:50;20.20;99.90
33382;DHT22;21342;48.786;9.166;2022-10-19T13:46:20;20.20;99.90
33382;DHT22;21342;48.786;9.166;2022-10-19T13:49:16;20.30;99.90
33382;DHT22;21342;48.786;9.166;2022-10-19T13:51:55;20.30;99.90
33382;DHT22;21342;48.786;9.166;2022-10-19T13:54:36;20.00;99.90
33382;DHT22;21342;48.786;9.166;2022-10-19T13:57:18;20.10;99.90
33382;DHT22;21342;48.786;9.166;2022-10-19T14:00:03;19.80;99.90
33382;DHT22;21342;48.786;9.166;2022-10-19T14:02:52;19.60;99.90
33382;DHT22;21342;48.786;9.166;2022-10-19T14:05:53;19.40;99.90
33382;DHT22;21342;48.786;9.166;2022-10-19T14:11:32;18.80;99.90
33382;DHT22;21342;48.786;9.166;2022-10-19T14:14:10;18.70;99.90
33382;DHT22;21342;48.786;9.166;2022-10-19T14:16:47;18.70;99.90
33382;DHT22;21342;48.786;9.166;2022-10-19T14:19:21;18.70;99.90
33382;DHT22;21342;48.786;9.166;2022-10-19T14:21:52;18.60;99.90
33382;DHT22;21342;48.786;9.166;2022-10-19T14:24:25;18.70;99.90
33382;DHT22;21342;48.786;9.166;2022-10-19T14:26:53;18.60;99.90
33382;DHT22;21342;48.786;9.166;2022-10-19T14:29:20;18.60;99.90
33382;DHT22;21342;48.786;9.166;2022-10-19T14:31:49;18.50;99.90
33382;DHT22;21342;48.786;9.166;2022-10-19T14:34:17;18.40;99.90
33382;DHT22;21342;48.786;9.166;2022-10-19T14:36:46;18.30;99.90
33382;DHT22;21342;48.786;9.166;2022-10-19T14:39:28;18.40;99.90
33382;DHT22;21342;48.786;9.166;2022-10-19T14:41:56;18.30;99.90
33382;DHT22;21342;48.786;9.166;2022-10-19T14:44:35;18.30;99.90
33382;DHT22;21342;48.786;9.166;2022-10-19T14:47:18;18.20;99.90
33382;DHT22;21342;48.786;9.166;2022-10-19T14:49:46;18.20;99.90
33382;DHT22;21342;48.786;9.166;2022-10-19T14:52:18;18.20;99.90
33382;DHT22;21342;48.786;9.166;2022-10-19T14:54:50;18.20;99.90
33382;DHT22;21342;48.786;9.166;2022-10-19T14:57:24;18.20;99.90
33382;DHT22;21342;48.786;9.166;2022-10-19T14:59:54;18.20;99.90
33382;DHT22;21342;48.786;9.166;2022-10-19T15:02:27;18.20;99.90
33382;DHT22;21342;48.786;9.166;2022-10-19T15:04:56;18.20;99.90
33382;DHT22;21342;48.786;9.166;2022-10-19T15:07:28;18.10;99.90
33382;DHT22;21342;48.786;9.166;2022-10-19T15:09:59;18.00;99.90
33382;DHT22;21342;48.786;9.166;2022-10-19T15:12:28;18.00;99.90
33382;DHT22;21342;48.786;9.166;2022-10-19T15:14:56;17.90;99.90
33382;DHT22;21342;48.786;9.166;2022-10-19T15:17:28;18.00;99.90
33382;DHT22;21342;48.786;9.166;2022-10-19T15:19:56;17.90;99.90
33382;DHT22;21342;48.786;9.166;2022-10-19T15:22:37;17.80;99.90
33382;DHT22;21342;48.786;9.166;2022-10-19T15:25:38;17.90;99.90
33382;DHT22;21342;48.786;9.166;2022-10-19T15:28:18;17.80;99.90
33382;DHT22;21342;48.786;9.166;2022-10-19T15:30:57;17.80;99.90
33382;DHT22;21342;48.786;9.166;2022-10-19T15:33:26;17.70;99.90
33382;DHT22;21342;48.786;9.166;2022-10-19T15:36:06;17.70;99.90
33382;DHT22;21342;48.786;9.166;2022-10-19T15:38:34;17.60;99.90
33382;DHT22;21342;48.786;9.166;2022-10-19T15:41:02;17.60;99.90
33382;DHT22;21342;48.786;9.166;2022-10-19T15:43:38;17.60;99.90
33382;DHT22;21342;48.786;9.166;2022-10-19T15:46:21;17.50;99.90
33382;DHT22;21342;48.786;9.166;2022-10-19T15:48:50;17.40;99.90
33382;DHT22;21342;48.786;9.166;2022-10-19T15:51:37;17.40;99.90
33382;DHT22;21342;48.786;9.166;2022-10-19T15:54:07;17.40;99.90
33382;DHT22;21342;48.786;9.166;2022-10-19T15:56:38;17.40;99.90
33382;DHT22;21342;48.786;9.166;2022-10-19T15:59:10;17.30;99.90
33382;DHT22;21342;48.786;9.166;2022-10-19T16:01:38;17.30;99.90
33382;DHT22;21342;48.786;9.166;2022-10-19T16:04:06;17.40;99.90
33382;DHT22;21342;48.786;9.166;2022-10-19T16:06:36;17.30;99.90
33382;DHT22;21342;48.786;9.166;2022-10-19T16:09:04;17.30;99.90
33382;DHT22;21342;48.786;9.166;2022-10-19T16:11:31;17.20;99.90